Citronelle, Alabama
Current Conditions -  °F | °C
As of 1:56 PM on Monday 22 Dec 2014 (Local Time) from KMOB Reporting Station
Haze Haze  
Wind Chill: 68°   Ceiling: 1000
Heat Index: 68°   Visibility: 5mi
Dew Point: 65°   Wind: 6mph
Humidity: 90%   Direction: 200°SSW
Pressure: 29.76"   Gusts: NA
Location:  31.09°N, 88.23°W
Report Text: KMOB 221956Z 20005KT 5SM BR BKN010 BKN016 BKN022 20/18 A2976 RMK AO2 RAB25E44 SLP077 P0001 T02000183
Loading
Personal Weather Stations






























Interactive Weather Map New forecast layout! Learn more

10-Day Weather Forecast

Advertisements
Track Severe Weather on mobile